KBNO/BNO METAR and TAF weather

Enter ICAO airport designator
Station Type Date Time Source
KBNO METAR 2021/03/06 00:53 UTC NOAA

KBNO 060053Z AUTO 19008KT 10SM CLR 13/M03 A2990 RMK AO2 SLP123 T01331033


Station Type Date Time Source
KBNO Decoded METAR 2021/03/06 00:53 UTC NOAA

BURNS MUNICIPAL AIRPORT, OR, United States (KBNO) 43-36N 118-57W 1264M
Mar 05, 2021 - 07:53 PM EST / 2021.03.06 0053 UTC
Wind: from the S (190 degrees) at 9 MPH (8 KT):0
Visibility: 10 mile(s):0
Sky conditions: clear
Temperature: 55.9 F (13.3 C)
Dew Point: 26.1 F (-3.3 C)
Relative Humidity: 31%
Pressure (altimeter): 29.9 in. Hg (1012 hPa)
ob: KBNO 060053Z AUTO 19008KT 10SM CLR 13/M03 A2990 RMK AO2 SLP123 T01331033
cycle: 1

Station Type Date Time Source
KBNO TAF 2021/03/06 01:18 UTC NOAA

TAF
AMD KBNO 060117Z 0601/0624 19008KT P6SM BKN200
FM060600 16005KT P6SM BKN150
FM061400 25010KT P6SM VCSH BKN050
FM061800 26015G25KT P6SM BKN070

Example: see airport list